Time;durP1;ratioP1;P1;durP2;ratioP2;P2;SDS_P1;SDS_P2;PMS_P1;PMS_P2;Temp;Humidity;BMP_temperature;BMP_pressure;BME280_temperature;BME280_humidity;BME280_pressure;Samples;Min_cycle;Max_cycle;Signal;HPM_P1;HPM_P2
2023/05/01 00:01:28;;;;;;;19.70;12.75;;;;;;;17.02;100.00;99100.25;5062601;28;20141;-80
2023/05/01 00:04:11;;;;;;;21.35;12.85;;;;;;;17.08;100.00;99105.41;5065747;28;20106;-80
2023/05/01 00:06:56;;;;;;;18.05;12.63;;;;;;;17.11;100.00;99106.78;5061975;28;20081;-81
2023/05/01 00:09:41;;;;;;;18.58;11.18;;;;;;;16.88;100.00;99100.47;5061806;28;20135;-80
2023/05/01 00:12:25;;;;;;;17.10;12.50;;;;;;;16.79;100.00;99105.31;5065233;28;20051;-80
2023/05/01 00:15:10;;;;;;;19.13;12.52;;;;;;;16.60;100.00;99103.84;5064164;28;20133;-80
2023/05/01 00:17:54;;;;;;;22.33;12.93;;;;;;;16.46;100.00;99100.66;5064020;28;20126;-80
2023/05/01 00:20:38;;;;;;;19.00;12.30;;;;;;;16.18;100.00;99105.59;5060768;28;20043;-79
2023/05/01 00:23:22;;;;;;;18.27;12.38;;;;;;;16.22;100.00;99098.00;5061716;28;20114;-79
2023/05/01 00:26:07;;;;;;;23.05;11.63;;;;;;;16.18;100.00;99092.38;5065136;28;20080;-80
2023/05/01 00:28:51;;;;;;;18.67;11.13;;;;;;;15.93;100.00;99090.75;5063679;28;20170;-79
2023/05/01 00:31:35;;;;;;;14.75;10.10;;;;;;;15.97;100.00;99086.59;5062724;28;20040;-79
2023/05/01 00:34:19;;;;;;;18.95;10.10;;;;;;;15.94;100.00;99081.75;5061927;28;20657;-80
2023/05/01 00:37:03;;;;;;;13.70;8.70;;;;;;;15.66;100.00;99079.72;5058694;28;20079;-81
2023/05/01 00:39:47;;;;;;;14.35;8.80;;;;;;;15.59;100.00;99071.09;5059805;28;20406;-80
2023/05/01 00:42:35;;;;;;;19.30;9.55;;;;;;;15.63;100.00;99066.97;5061806;28;20886;-79
2023/05/01 00:45:19;;;;;;;20.88;11.32;;;;;;;15.58;100.00;99064.97;5063742;28;20047;-79
2023/05/01 00:48:04;;;;;;;18.27;11.50;;;;;;;15.50;100.00;99062.69;5060588;28;20043;-80
2023/05/01 00:50:49;;;;;;;22.45;11.10;;;;;;;15.38;100.00;99062.66;5060879;28;20552;-79
2023/05/01 00:53:33;;;;;;;18.33;10.95;;;;;;;15.42;100.00;99053.22;5061663;28;20067;-83
2023/05/01 00:56:17;;;;;;;19.15;12.02;;;;;;;15.54;100.00;99061.19;5057151;28;21832;-80
2023/05/01 00:59:02;;;;;;;19.67;12.02;;;;;;;15.57;100.00;99045.69;5060109;28;20038;-80
2023/05/01 01:01:46;;;;;;;21.30;11.75;;;;;;;15.54;100.00;99047.97;5065803;28;20133;-80
2023/05/01 01:04:31;;;;;;;19.90;12.55;;;;;;;15.55;100.00;99057.50;5065364;28;20059;-80
2023/05/01 01:07:42;;;;;;;27.90;14.23;;;;;;;15.52;100.00;99052.66;5057672;28;20133;-80
2023/05/01 01:10:42;;;;;;;24.20;16.23;;;;;;;15.52;100.00;99048.19;5065082;28;20393;-80
2023/05/01 01:13:41;;;;;;;30.50;16.42;;;;;;;15.56;100.00;99040.59;5060595;28;20124;-79
2023/05/01 01:16:32;;;;;;;26.77;17.40;;;;;;;15.60;100.00;99054.19;5061748;28;20079;-80
2023/05/01 01:19:35;;;;;;;32.50;18.38;;;;;;;15.64;100.00;99045.56;5065328;28;20046;-79
2023/05/01 01:22:23;;;;;;;31.33;19.83;;;;;;;15.68;100.00;99045.91;5060305;28;20039;-79
2023/05/01 01:25:22;;;;;;;31.75;19.42;;;;;;;15.64;100.00;99039.47;5064168;28;20047;-79
2023/05/01 01:28:43;;;;;;;31.35;19.17;;;;;;;15.63;100.00;99037.84;5059752;28;20079;-80
2023/05/01 01:32:02;;;;;;;33.17;19.27;;;;;;;15.63;100.00;99033.38;5060504;28;20048;-79
2023/05/01 01:34:50;;;;;;;29.70;19.75;;;;;;;15.44;100.00;99031.84;5064895;28;20071;-80
2023/05/01 01:38:01;;;;;;;33.03;20.67;;;;;;;15.51;100.00;99035.97;5064757;28;20035;-80
2023/05/01 01:41:10;;;;;;;33.20;21.65;;;;;;;15.51;100.00;99029.91;5063297;28;20094;-80
2023/05/01 01:44:24;;;;;;;33.60;19.02;;;;;;;15.43;100.00;99020.44;5057325;28;20051;-79
2023/05/01 01:47:11;;;;;;;31.67;19.73;;;;;;;15.55;100.00;99018.66;5059100;28;20441;-79
2023/05/01 01:49:57;;;;;;;32.50;20.58;;;;;;;15.52;100.00;99008.50;5061177;28;20333;-80
2023/05/01 01:52:44;;;;;;;34.25;20.73;;;;;;;15.30;100.00;99010.06;5062870;28;20547;-80
2023/05/01 01:55:31;;;;;;;32.97;17.63;;;;;;;15.37;100.00;99013.44;5060867;28;20501;-81
2023/05/01 01:58:20;;;;;;;31.60;18.85;;;;;;;15.21;100.00;99006.94;5064599;28;20195;-79
2023/05/01 02:01:05;;;;;;;28.35;17.42;;;;;;;15.23;100.00;99010.97;5061902;28;20071;-80
2023/05/01 02:03:51;;;;;;;31.25;18.02;;;;;;;15.38;100.00;99009.75;5059968;28;20211;-81
2023/05/01 02:06:37;;;;;;;31.05;18.25;;;;;;;15.46;100.00;99006.75;5061071;28;20123;-83
2023/05/01 02:09:23;;;;;;;32.30;19.15;;;;;;;15.29;100.00;99001.34;5061538;28;20049;-79
2023/05/01 02:12:10;;;;;;;32.13;17.83;;;;;;;15.40;100.00;98997.09;5058830;28;20097;-78
2023/05/01 02:14:56;;;;;;;27.60;17.48;;;;;;;15.28;100.00;98997.88;5060142;28;20382;-79
2023/05/01 02:17:41;;;;;;;31.63;18.38;;;;;;;15.21;100.00;98988.41;5066282;28;20081;-80
2023/05/01 02:20:26;;;;;;;29.33;16.20;;;;;;;15.18;100.00;98988.88;5062378;28;20043;-79
2023/05/01 02:23:12;;;;;;;34.50;16.77;;;;;;;15.18;100.00;98983.59;5064218;28;20047;-79
2023/05/01 02:26:01;;;;;;;25.50;15.27;;;;;;;15.28;100.00;98995.22;5064036;28;20105;-79
2023/05/01 02:28:46;;;;;;;30.30;16.08;;;;;;;15.18;100.00;98983.59;5058439;28;20043;-80
2023/05/01 02:31:29;;;;;;;32.35;15.95;;;;;;;15.29;100.00;98974.91;5061814;28;20123;-80
2023/05/01 02:34:13;;;;;;;22.25;14.40;;;;;;;15.06;100.00;98971.16;5064022;28;20043;-80
2023/05/01 02:36:58;;;;;;;28.67;15.32;;;;;;;15.17;100.00;98971.41;5060579;28;20035;-80
2023/05/01 02:39:42;;;;;;;27.25;14.35;;;;;;;15.19;100.00;98969.34;5061848;28;20085;-79
2023/05/01 02:42:28;;;;;;;27.63;14.90;;;;;;;15.24;100.00;98974.78;5061320;28;20390;-80
2023/05/01 02:45:18;;;;;;;24.85;13.02;;;;;;;15.38;100.00;98980.66;5062988;28;20067;-80
2023/05/01 02:48:05;;;;;;;24.75;13.23;;;;;;;15.08;100.00;98984.13;5059424;28;20547;-80
2023/05/01 02:50:50;;;;;;;27.45;14.00;;;;;;;15.35;100.00;98973.19;5060942;28;20502;-79
2023/05/01 02:53:35;;;;;;;25.80;14.02;;;;;;;15.14;100.00;98977.97;5062138;28;20122;-81
2023/05/01 02:56:19;;;;;;;21.58;12.15;;;;;;;15.31;100.00;98978.13;5063704;28;20528;-81
2023/05/01 02:59:03;;;;;;;21.00;12.88;;;;;;;15.28;100.00;98971.44;5061667;28;20028;-81
2023/05/01 03:01:48;;;;;;;23.30;11.90;;;;;;;15.36;100.00;98977.44;5059942;28;20444;-80
2023/05/01 03:04:32;;;;;;;20.23;11.98;;;;;;;15.34;100.00;98974.22;5058781;28;20044;-80
2023/05/01 03:07:16;;;;;;;22.35;13.07;;;;;;;15.35;100.00;98968.69;5060418;28;20044;-81
2023/05/01 03:10:04;;;;;;;22.27;12.35;;;;;;;15.28;100.00;98971.44;5058188;28;20044;-80
2023/05/01 03:12:48;;;;;;;19.67;12.63;;;;;;;15.33;100.00;98964.66;5061741;28;20047;-80
2023/05/01 03:15:32;;;;;;;22.35;13.43;;;;;;;15.34;100.00;98967.06;5062062;28;20047;-81
2023/05/01 03:18:16;;;;;;;23.52;12.75;;;;;;;15.39;100.00;98964.53;5062459;28;20764;-81
2023/05/01 03:21:00;;;;;;;19.92;12.25;;;;;;;15.34;100.00;98964.44;5060158;28;20518;-79
2023/05/01 03:23:44;;;;;;;19.70;11.88;;;;;;;15.29;100.00;98964.31;5060502;28;20086;-78
2023/05/01 03:26:28;;;;;;;18.10;11.80;;;;;;;15.25;100.00;98968.44;5057836;28;20059;-79
2023/05/01 03:29:12;;;;;;;16.13;10.70;;;;;;;15.22;100.00;98975.00;5059465;28;20090;-81
2023/05/01 03:31:57;;;;;;;16.23;10.23;;;;;;;15.22;100.00;98980.28;5063804;28;20035;-79
2023/05/01 03:34:41;;;;;;;13.35;8.38;;;;;;;15.02;100.00;98974.47;5062583;28;21405;-79
2023/05/01 03:37:25;;;;;;;14.63;8.40;;;;;;;15.01;100.00;98971.00;5063207;28;20047;-79
2023/05/01 03:40:09;;;;;;;13.68;7.88;;;;;;;14.96;100.00;98977.00;5065276;28;20059;-80
2023/05/01 03:42:54;;;;;;;12.68;8.40;;;;;;;14.79;100.00;98968.88;5062625;28;20663;-79
2023/05/01 03:45:38;;;;;;;13.00;8.60;;;;;;;14.82;100.00;98971.06;5062966;28;21570;-79
2023/05/01 03:48:23;;;;;;;14.32;8.68;;;;;;;14.71;100.00;98980.56;5066527;28;20524;-80
2023/05/01 03:51:07;;;;;;;15.40;8.70;;;;;;;14.69;100.00;98981.78;5063223;28;20048;-81
2023/05/01 03:53:51;;;;;;;13.07;8.77;;;;;;;14.68;100.00;98982.81;5065237;28;20075;-80
2023/05/01 03:56:35;;;;;;;10.60;7.63;;;;;;;14.34;100.00;98977.91;5064876;28;20054;-81
2023/05/01 03:59:20;;;;;;;17.60;9.50;;;;;;;14.47;100.00;98981.44;5062916;28;20071;-81
2023/05/01 04:02:04;;;;;;;13.40;7.93;;;;;;;14.39;100.00;98972.81;5064393;28;20074;-81
2023/05/01 04:04:48;;;;;;;9.00;6.55;;;;;;;14.46;100.00;98982.47;5062499;28;20079;-81
2023/05/01 04:07:31;;;;;;;12.65;7.93;;;;;;;14.42;100.00;98980.28;5064430;28;20051;-81
2023/05/01 04:10:16;;;;;;;11.07;7.20;;;;;;;14.31;100.00;98988.13;5067032;28;20101;-81
2023/05/01 04:13:00;;;;;;;9.75;6.28;;;;;;;14.33;100.00;98992.16;5063728;28;20109;-81
2023/05/01 04:15:45;;;;;;;;;;;;;;;14.35;100.00;98984.03;5063476;28;20043;-81
2023/05/01 04:18:29;;;;;;;11.52;6.25;;;;;;;14.29;100.00;98985.69;5063980;28;20385;-80
2023/05/01 04:21:16;;;;;;;15.65;6.75;;;;;;;14.25;100.00;98984.53;5063662;28;20072;-80
2023/05/01 04:24:00;;;;;;;14.70;6.82;;;;;;;14.33;100.00;98992.16;5064906;28;20129;-81
2023/05/01 04:26:44;;;;;;;11.93;6.15;;;;;;;14.50;100.00;98994.19;5061890;28;20060;-80
2023/05/01 04:29:28;;;;;;;12.88;7.22;;;;;;;14.50;100.00;98991.56;5062540;28;20501;-81
2023/05/01 04:32:12;;;;;;;12.35;7.85;;;;;;;14.21;100.00;98991.28;5060168;28;20039;-81
2023/05/01 04:34:56;;;;;;;12.52;7.00;;;;;;;14.65;100.00;98993.84;5064995;28;20165;-82
2023/05/01 04:37:40;;;;;;;12.50;7.20;;;;;;;14.44;100.00;98995.88;5060093;28;20106;-79
2023/05/01 04:40:24;;;;;;;12.60;7.03;;;;;;;14.84;100.00;98999.91;5060789;28;20039;-79
2023/05/01 04:43:08;;;;;;;12.68;6.57;;;;;;;14.83;100.00;98998.31;5064363;28;20087;-79
2023/05/01 04:45:52;;;;;;;;;;;;;;;14.71;100.00;99006.97;5064875;28;20098;-78
2023/05/01 04:48:36;;;;;;;9.73;6.85;;;;;;;14.94;100.00;98997.56;5066762;28;19959;-79
2023/05/01 04:51:21;;;;;;;13.13;7.35;;;;;;;14.96;100.00;98998.13;5063365;28;20120;-82
2023/05/01 04:54:05;;;;;;;12.77;7.60;;;;;;;15.01;100.00;98983.44;5060390;28;20043;-84
2023/05/01 04:56:49;;;;;;;12.30;7.03;;;;;;;15.27;100.00;98998.91;5061960;28;20506;-81
2023/05/01 04:59:34;;;;;;;13.27;7.53;;;;;;;15.35;100.00;98997.00;5062021;28;20040;-82
2023/05/01 05:02:18;;;;;;;11.60;7.72;;;;;;;15.38;100.00;98988.59;5066902;28;20039;-82
2023/05/01 05:05:02;;;;;;;18.02;9.75;;;;;;;15.40;100.00;98994.47;5062602;28;20090;-81
2023/05/01 05:07:45;;;;;;;21.58;11.18;;;;;;;15.44;100.00;98992.19;5055995;28;20063;-82
2023/05/01 05:10:29;;;;;;;15.13;9.93;;;;;;;15.56;100.00;99006.22;5062472;28;20083;-84
2023/05/01 05:13:13;;;;;;;14.98;8.90;;;;;;;15.24;100.00;98999.38;5058687;28;20044;-84
2023/05/01 05:15:57;;;;;;;11.35;8.38;;;;;;;15.37;100.00;99008.13;5066799;28;20043;-84
2023/05/01 05:18:42;;;;;;;14.52;7.65;;;;;;;15.52;100.00;98989.97;5061376;28;20105;-85
2023/05/01 05:21:26;;;;;;;15.65;8.18;;;;;;;15.10;100.00;98998.75;5068316;28;20090;-81
2023/05/01 05:24:10;;;;;;;15.60;7.90;;;;;;;15.44;100.00;99000.09;5065072;28;20529;-82
2023/05/01 05:26:54;;;;;;;12.38;7.07;;;;;;;15.38;100.00;99005.25;5063269;28;20054;-83
2023/05/01 05:29:38;;;;;;;14.48;8.02;;;;;;;15.56;100.00;99017.59;5061662;28;20079;-87
2023/05/01 05:32:22;;;;;;;15.40;7.93;;;;;;;15.62;100.00;99004.50;5066217;28;20063;-84
2023/05/01 05:35:07;;;;;;;14.07;8.52;;;;;;;15.37;100.00;99006.28;5071338;28;20047;-84
2023/05/01 05:37:51;;;;;;;18.70;8.82;;;;;;;15.41;100.00;98998.72;5075663;28;20108;-85
2023/05/01 05:40:35;;;;;;;16.42;9.02;;;;;;;15.67;100.00;98999.31;5064801;28;20067;-84
2023/05/01 05:43:19;;;;;;;18.05;8.80;;;;;;;15.31;100.00;99003.75;5065748;28;20099;-85
2023/05/01 05:46:03;;;;;;;14.98;8.23;;;;;;;15.42;100.00;99013.56;5063383;28;20046;-85
2023/05/01 05:48:47;;;;;;;16.42;8.02;;;;;;;15.46;100.00;99004.13;5056126;28;20094;-83
2023/05/01 05:51:31;;;;;;;13.52;7.40;;;;;;;15.49;100.00;99011.59;5061699;28;20043;-85
2023/05/01 05:54:16;;;;;;;15.95;7.68;;;;;;;15.74;100.00;99000.03;5066357;28;20052;-86
2023/05/01 05:57:01;;;;;;;14.38;7.35;;;;;;;15.43;100.00;99015.16;5063547;28;20455;-86
2023/05/01 05:59:45;;;;;;;11.85;7.72;;;;;;;15.44;100.00;99008.84;5064768;28;20094;-84
2023/05/01 06:02:29;;;;;;;10.48;7.22;;;;;;;15.78;100.00;99009.13;5059249;28;20413;-84
2023/05/01 06:05:13;;;;;;;13.75;9.02;;;;;;;15.51;100.00;99014.03;5063784;28;20125;-83
2023/05/01 06:07:57;;;;;;;12.00;7.47;;;;;;;15.87;100.00;99006.94;5053192;28;20055;-84
2023/05/01 06:10:42;;;;;;;13.80;8.70;;;;;;;15.72;100.00;99004.72;5060256;28;20405;-84
2023/05/01 06:13:27;;;;;;;13.85;8.48;;;;;;;15.91;100.00;99009.94;5061505;28;20075;-84
2023/05/01 06:16:11;;;;;;;14.40;8.40;;;;;;;16.19;100.00;99013.75;5057079;28;20118;-84
2023/05/01 06:18:55;;;;;;;11.77;7.82;;;;;;;16.49;100.00;99004.81;5064313;28;20526;-84
2023/05/01 06:21:40;;;;;;;13.18;8.10;;;;;;;16.63;100.00;99010.66;5058862;28;20080;-84
2023/05/01 06:24:24;;;;;;;10.65;7.70;;;;;;;16.60;100.00;99009.28;5058364;28;20035;-87
2023/05/01 06:27:08;;;;;;;11.73;7.40;;;;;;;16.11;100.00;99010.41;5055934;28;20051;-86
2023/05/01 06:29:52;;;;;;;12.13;7.75;;;;;;;16.41;100.00;99016.59;5061572;28;20119;-87
2023/05/01 06:32:37;;;;;;;11.48;6.85;;;;;;;16.16;100.00;99019.50;5075052;28;20524;-88
2023/05/01 06:35:22;;;;;;;10.90;7.38;;;;;;;16.50;100.00;99024.97;5065536;28;20068;-88
2023/05/01 06:38:06;;;;;;;10.50;6.72;;;;;;;16.03;100.00;99012.59;5060949;28;20052;-89
2023/05/01 06:40:50;;;;;;;11.50;7.05;;;;;;;16.02;100.00;99019.72;5064616;28;20043;-90
2023/05/01 06:43:34;;;;;;;12.02;6.43;;;;;;;16.64;100.00;99015.72;5061598;28;20110;-87
2023/05/01 06:46:20;;;;;;;9.98;6.70;;;;;;;16.80;100.00;99031.91;5062803;28;20055;-87
2023/05/01 06:49:05;;;;;;;9.85;5.72;;;;;;;16.51;100.00;99037.19;5060181;28;20568;-85
2023/05/01 06:51:50;;;;;;;10.88;6.30;;;;;;;16.90;100.00;99044.56;5068651;28;20055;-85
2023/05/01 06:54:33;;;;;;;;;;;;;;;16.76;100.00;99052.00;5054470;28;20505;-86
2023/05/01 06:57:18;;;;;;;10.18;5.90;;;;;;;16.58;100.00;99050.28;5058415;28;20010;-85
2023/05/01 07:00:02;;;;;;;10.70;5.70;;;;;;;16.22;100.00;99050.34;5058974;28;20038;-83
2023/05/01 07:02:46;;;;;;;7.88;5.72;;;;;;;16.17;100.00;99055.53;5056101;28;20460;-85
2023/05/01 07:05:33;;;;;;;8.43;5.93;;;;;;;16.21;100.00;99054.03;5059876;28;20095;-83
2023/05/01 07:08:17;;;;;;;9.23;6.20;;;;;;;16.16;100.00;99046.78;5061820;28;20090;-83
2023/05/01 07:11:01;;;;;;;11.50;6.45;;;;;;;16.22;100.00;99056.47;5058925;28;20047;-82
2023/05/01 07:13:45;;;;;;;14.45;6.28;;;;;;;16.49;100.00;99063.09;5059345;28;20414;-83
2023/05/01 07:16:29;;;;;;;9.90;5.88;;;;;;;17.19;100.00;99061.31;5058796;28;20073;-83
2023/05/01 07:19:13;;;;;;;10.23;6.05;;;;;;;16.78;100.00;99066.59;5057172;28;20433;-79
2023/05/01 07:21:58;;;;;;;12.07;5.97;;;;;;;16.98;100.00;99063.59;5057584;28;20090;-81
2023/05/01 07:24:42;;;;;;;8.25;5.22;;;;;;;17.17;100.00;99071.38;5064823;28;20105;-81
2023/05/01 07:27:26;;;;;;;7.20;5.22;;;;;;;17.37;100.00;99070.91;5052689;28;20064;-83
2023/05/01 07:30:10;;;;;;;10.85;5.38;;;;;;;17.10;100.00;99066.19;5056107;28;20118;-84
2023/05/01 07:32:56;;;;;;;7.22;4.63;;;;;;;17.61;100.00;99064.69;5060100;28;20555;-84
2023/05/01 07:35:41;;;;;;;8.48;5.10;;;;;;;17.61;100.00;99070.81;5056671;28;20075;-84
2023/05/01 07:38:26;;;;;;;7.32;4.72;;;;;;;18.10;100.00;99072.94;5060057;28;20039;-81
2023/05/01 07:41:10;;;;;;;8.63;4.50;;;;;;;18.16;100.00;99071.13;5058545;28;20140;-83
2023/05/01 07:43:57;;;;;;;8.68;4.80;;;;;;;17.68;100.00;99073.28;5049804;28;20097;-78
2023/05/01 07:46:42;;;;;;;5.25;4.60;;;;;;;18.53;100.00;99078.53;5057896;28;20075;-81
2023/05/01 07:49:26;;;;;;;7.32;4.88;;;;;;;18.28;100.00;99084.34;5051806;28;20733;-80
2023/05/01 07:52:10;;;;;;;10.27;5.78;;;;;;;18.29;100.00;99090.44;5059857;28;20086;-81
2023/05/01 07:54:54;;;;;;;8.15;4.82;;;;;;;18.09;100.00;99092.56;5053484;28;20174;-80
2023/05/01 07:57:38;;;;;;;6.00;4.95;;;;;;;17.96;100.00;99085.69;5055789;28;20051;-81
2023/05/01 08:00:25;;;;;;;6.10;5.00;;;;;;;17.56;100.00;99100.72;5053709;28;20479;-87
2023/05/01 08:03:10;;;;;;;9.23;4.75;;;;;;;17.68;100.00;99107.78;5061142;28;20044;-87
2023/05/01 08:05:54;;;;;;;6.75;4.85;;;;;;;17.95;100.00;99096.56;5056783;28;20044;-87
2023/05/01 08:08:38;;;;;;;7.70;4.20;;;;;;;17.34;100.00;99103.22;5058852;28;20159;-88
2023/05/01 08:11:25;;;;;;;5.82;4.15;;;;;;;17.88;100.00;99099.38;5055264;28;20040;-87
2023/05/01 08:14:09;;;;;;;10.07;4.55;;;;;;;17.48;100.00;99095.78;5060872;28;20064;-87
2023/05/01 08:16:54;;;;;;;6.65;4.18;;;;;;;17.38;100.00;99103.56;5066382;28;20055;-87
2023/05/01 08:19:38;;;;;;;6.25;3.90;;;;;;;17.81;100.00;99106.69;5063094;28;20103;-88
2023/05/01 08:22:22;;;;;;;6.68;4.22;;;;;;;17.94;100.00;99097.59;5063792;28;20078;-87
2023/05/01 08:25:07;;;;;;;5.20;3.97;;;;;;;18.19;100.00;99104.38;5061332;28;20522;-81
2023/05/01 08:27:51;;;;;;;7.03;4.00;;;;;;;18.21;100.00;99105.75;5060087;28;20063;-86
2023/05/01 08:30:35;;;;;;;6.45;3.60;;;;;;;18.66;100.00;99101.28;5060619;28;20105;-86
2023/05/01 08:33:20;;;;;;;5.55;3.22;;;;;;;18.38;100.00;99097.75;5059384;28;20140;-85
2023/05/01 08:36:04;;;;;;;6.00;3.30;;;;;;;18.56;100.00;99095.84;5056165;28;20098;-79
2023/05/01 08:38:48;;;;;;;4.22;2.40;;;;;;;18.39;100.00;99112.63;5048370;28;20056;-78
2023/05/01 08:41:34;;;;;;;4.97;2.58;;;;;;;18.38;99.41;99105.72;5054400;28;20087;-79
2023/05/01 08:44:19;;;;;;;2.92;2.28;;;;;;;18.66;97.24;99111.94;5050957;28;20094;-80
2023/05/01 08:47:14;;;;;;;6.57;2.72;;;;;;;18.38;97.42;99115.56;5051299;28;20046;-86
2023/05/01 08:50:00;;;;;;;4.28;2.60;;;;;;;19.04;97.38;99116.66;5058168;28;20061;-85
2023/05/01 08:52:46;;;;;;;3.85;2.42;;;;;;;19.31;95.38;99110.59;5057558;28;20395;-87
2023/05/01 08:55:34;;;;;;;6.07;2.80;;;;;;;18.87;97.33;99114.88;5058656;28;20055;-87
2023/05/01 08:58:20;;;;;;;5.07;3.70;;;;;;;19.63;96.98;99109.81;5058630;28;20051;-88
2023/05/01 09:01:05;;;;;;;5.55;2.85;;;;;;;19.31;96.47;99115.91;5061995;28;20078;-87
2023/05/01 09:03:51;;;;;;;4.45;2.80;;;;;;;19.09;96.67;99119.41;5061342;28;20426;-86
2023/05/01 09:06:35;;;;;;;4.28;2.80;;;;;;;18.79;98.33;99116.09;5060382;28;20071;-87
2023/05/01 09:09:20;;;;;;;3.28;2.58;;;;;;;18.58;99.68;99130.97;5063792;28;20051;-86
2023/05/01 09:12:03;;;;;;;6.95;2.90;;;;;;;18.77;98.83;99133.34;5060122;28;20043;-80
2023/05/01 09:14:49;;;;;;;3.13;2.40;;;;;;;18.97;98.12;99122.97;5059078;28;20387;-78
2023/05/01 09:17:34;;;;;;;3.92;2.65;;;;;;;19.16;96.36;99122.66;5059428;28;20832;-83
2023/05/01 09:20:18;;;;;;;6.45;2.78;;;;;;;19.07;94.93;99132.16;5057979;28;20464;-82
2023/05/01 09:23:03;;;;;;;3.28;2.70;;;;;;;19.06;95.86;99139.31;5059155;28;20090;-83
2023/05/01 09:25:49;;;;;;;3.95;2.78;;;;;;;18.79;94.81;99131.25;5054578;28;20055;-82
2023/05/01 09:28:44;;;;;;;4.55;2.50;;;;;;;18.55;95.11;99142.09;5059253;28;20402;-82
2023/05/01 09:31:31;;;;;;;5.00;2.38;;;;;;;17.87;96.77;99142.91;5065009;28;20140;-82
2023/05/01 09:34:20;;;;;;;4.07;2.63;;;;;;;18.20;97.25;99137.84;5062348;28;20086;-82
2023/05/01 09:37:05;;;;;;;4.53;2.53;;;;;;;18.74;96.83;99133.84;5056504;28;20047;-82
2023/05/01 09:40:08;;;;;;;2.90;2.45;;;;;;;18.72;95.46;99139.38;5062194;28;20044;-83
2023/05/01 09:42:56;;;;;;;4.75;2.67;;;;;;;18.21;94.76;99142.94;5062938;28;20047;-82
2023/05/01 09:45:41;;;;;;;4.65;2.55;;;;;;;19.18;93.92;99138.41;5060245;28;20101;-79
2023/05/01 09:48:25;;;;;;;3.80;2.25;;;;;;;19.29;92.79;99160.59;5066015;28;20063;-81
2023/05/01 09:51:20;;;;;;;7.03;2.38;;;;;;;19.29;90.70;99147.28;5065061;28;20078;-81
2023/05/01 09:54:17;;;;;;;3.25;2.67;;;;;;;19.21;89.46;99137.91;5058962;28;20043;-80
2023/05/01 09:57:01;;;;;;;3.75;2.45;;;;;;;19.68;89.14;99136.50;5063167;28;20082;-77
2023/05/01 10:00:00;;;;;;;2.88;2.30;;;;;;;19.82;86.97;99131.56;5057662;28;20102;-78
2023/05/01 10:02:46;;;;;;;3.35;2.00;;;;;;;19.61;84.52;99143.88;5054986;28;20093;-78
2023/05/01 10:05:42;;;;;;;4.90;2.30;;;;;;;20.00;82.80;99134.94;5060817;28;20099;-82
2023/05/01 10:08:42;;;;;;;3.80;2.47;;;;;;;20.01;84.86;99140.00;5056619;28;20438;-82
2023/05/01 10:11:26;;;;;;;3.88;2.17;;;;;;;19.34;85.12;99144.69;5058731;28;20417;-82
2023/05/01 10:14:11;;;;;;;4.43;2.78;;;;;;;18.83;86.40;99148.31;5058622;28;20047;-80
2023/05/01 10:16:56;;;;;;;2.38;2.08;;;;;;;18.86;86.75;99152.34;5061053;28;20070;-83
2023/05/01 10:19:40;;;;;;;2.90;2.35;;;;;;;18.92;83.64;99149.50;5061224;28;20039;-80
2023/05/01 10:22:25;;;;;;;2.70;1.95;;;;;;;19.10;84.85;99158.25;5059521;28;20506;-81
2023/05/01 10:25:11;;;;;;;5.65;2.33;;;;;;;18.92;85.03;99159.31;5060141;28;20087;-83
2023/05/01 10:27:56;;;;;;;2.78;1.83;;;;;;;19.20;81.01;99141.59;5060148;28;20063;-84
2023/05/01 10:30:42;;;;;;;3.50;2.00;;;;;;;19.01;82.52;99139.25;5059336;28;20043;-84
2023/05/01 10:33:27;;;;;;;2.00;1.90;;;;;;;18.98;83.30;99147.72;5058008;28;20086;-82
2023/05/01 10:36:41;;;;;;;3.25;2.20;;;;;;;18.74;83.68;99149.78;5056780;28;20506;-82
2023/05/01 10:39:31;;;;;;;2.95;2.40;;;;;;;19.03;82.41;99168.25;5057781;28;20085;-82
2023/05/01 10:42:15;;;;;;;2.15;1.73;;;;;;;19.12;80.00;99146.28;5056040;28;20056;-84
2023/05/01 10:45:29;;;;;;;2.85;2.00;;;;;;;19.57;80.56;99150.75;5060517;28;20052;-83
2023/05/01 10:48:42;;;;;;;1.90;1.80;;;;;;;19.48;79.90;99143.25;5057913;28;20051;-84
2023/05/01 10:51:26;;;;;;;2.25;2.00;;;;;;;19.52;80.28;99157.66;5058107;28;20102;-84
2023/05/01 10:54:13;;;;;;;2.17;1.88;;;;;;;19.38;79.49;99170.56;5058062;28;20052;-81
2023/05/01 10:57:00;;;;;;;3.50;2.08;;;;;;;20.63;79.63;99169.72;5059837;28;20534;-82
2023/05/01 11:00:00;;;;;;;4.28;2.50;;;;;;;20.39;79.04;99178.13;5058194;28;20501;-84
2023/05/01 11:02:44;;;;;;;3.35;2.30;;;;;;;19.09;81.65;99172.63;5060829;28;20079;-84
2023/05/01 11:05:59;;;;;;;5.20;2.30;;;;;;;20.17;81.51;99190.75;5059222;28;20048;-82
2023/05/01 11:08:44;;;;;;;3.53;2.40;;;;;;;20.11;81.23;99208.53;5061203;28;20166;-82
2023/05/01 11:11:28;;;;;;;2.55;2.17;;;;;;;18.94;80.68;99186.47;5059199;28;20067;-83
2023/05/01 11:14:12;;;;;;;3.60;2.13;;;;;;;19.11;81.46;99178.50;5058226;28;20131;-82
2023/05/01 11:16:56;;;;;;;2.40;2.13;;;;;;;18.51;82.15;99183.50;5059795;28;20461;-83
2023/05/01 11:19:46;;;;;;;2.53;1.92;;;;;;;19.15;80.98;99187.56;5063729;28;20094;-84
2023/05/01 11:22:34;;;;;;;2.22;1.80;;;;;;;19.80;79.09;99181.63;5063110;28;20394;-83
2023/05/01 11:25:27;;;;;;;2.33;1.70;;;;;;;20.43;77.76;99173.09;5058918;28;20418;-83
2023/05/01 11:28:17;;;;;;;2.20;1.70;;;;;;;20.15;77.03;99187.53;5058631;28;20055;-82
2023/05/01 11:31:02;;;;;;;3.63;2.10;;;;;;;20.39;76.57;99196.00;5058583;28;20086;-84
2023/05/01 11:33:46;;;;;;;2.58;1.90;;;;;;;20.42;75.81;99190.13;5058609;28;20051;-82
2023/05/01 11:36:50;;;;;;;2.15;1.63;;;;;;;20.93;74.93;99192.34;5061333;28;20497;-80
2023/05/01 11:39:34;;;;;;;2.53;1.85;;;;;;;20.77;74.66;99187.94;5058835;28;20151;-84
2023/05/01 11:42:21;;;;;;;2.20;1.98;;;;;;;20.45;74.32;99194.97;5060637;28;20108;-82
2023/05/01 11:45:12;;;;;;;3.00;1.70;;;;;;;20.81;72.85;99199.72;5063565;28;20591;-82
2023/05/01 11:47:57;;;;;;;1.70;1.60;;;;;;;20.31;71.90;99189.28;5059361;28;20071;-82
2023/05/01 11:50:41;;;;;;;2.28;1.83;;;;;;;20.91;69.61;99201.66;5059814;28;20167;-81
2023/05/01 11:53:25;;;;;;;2.47;1.70;;;;;;;20.47;70.38;99198.16;5062946;28;20074;-78
2023/05/01 11:56:22;;;;;;;2.67;1.80;;;;;;;20.53;70.64;99199.81;5067757;28;20044;-80
2023/05/01 11:59:10;;;;;;;2.85;2.08;;;;;;;21.09;71.58;99205.75;5064493;28;20079;-78
2023/05/01 12:01:55;;;;;;;2.35;1.77;;;;;;;21.40;70.38;99200.53;5053958;28;20048;-78
2023/05/01 12:04:40;;;;;;;2.13;1.85;;;;;;;20.83;69.29;99209.09;5060300;28;20047;-78
2023/05/01 12:07:24;;;;;;;1.95;1.63;;;;;;;21.60;68.48;99196.28;5062595;28;20090;-78
2023/05/01 12:10:09;;;;;;;2.55;1.80;;;;;;;22.00;66.87;99199.34;5060696;28;20105;-79
2023/05/01 12:12:54;;;;;;;2.17;1.70;;;;;;;21.94;67.91;99194.00;5061323;28;20111;-78
2023/05/01 12:15:42;;;;;;;2.70;1.80;;;;;;;21.48;68.10;99208.03;5063970;28;20079;-80
2023/05/01 12:18:26;;;;;;;2.30;1.95;;;;;;;20.61;69.54;99203.06;5058237;28;20090;-78
2023/05/01 12:21:15;;;;;;;1.90;1.80;;;;;;;21.25;69.37;99219.97;5056601;28;20433;-79
2023/05/01 12:24:11;;;;;;;3.10;1.70;;;;;;;21.45;69.04;99224.59;5062190;28;20084;-79
2023/05/01 12:27:00;;;;;;;3.55;1.90;;;;;;;21.05;70.51;99212.69;5060343;28;20562;-79
2023/05/01 12:29:46;;;;;;;2.35;2.08;;;;;;;20.81;70.37;99221.06;5062836;28;20106;-78
2023/05/01 12:32:32;;;;;;;2.35;2.15;;;;;;;20.68;70.31;99222.31;5059642;28;20036;-79
2023/05/01 12:35:16;;;;;;;2.58;2.20;;;;;;;21.02;70.93;99221.19;5059818;28;20039;-79
2023/05/01 12:38:10;;;;;;;2.47;2.25;;;;;;;21.09;72.08;99224.44;5053937;28;20051;-79
2023/05/01 12:40:56;;;;;;;2.85;2.20;;;;;;;20.96;72.42;99223.03;5062375;28;20051;-78
2023/05/01 12:43:40;;;;;;;3.65;2.60;;;;;;;20.43;73.08;99238.91;5061333;28;20090;-78
2023/05/01 12:46:28;;;;;;;1.75;1.65;;;;;;;20.35;72.34;99225.00;5056958;28;20399;-79
2023/05/01 12:49:17;;;;;;;2.88;2.00;;;;;;;20.93;72.14;99229.69;5060394;28;20166;-79
2023/05/01 12:52:03;;;;;;;3.60;3.13;;;;;;;21.95;70.94;99230.34;5061844;28;20437;-79